Terminal Aerodrome Forecast
Issued by NWS

Home | Current Version | Previous Version | Text Only | Print | Product List | Glossary On
Versions: 1 2 3 4 5 6 7 8 9 10 11 12 13
000
FTUS45 KABQ 280904 AAA
TAFROW
TAF AMD
KROW 280904Z 2809/2906 15008KT P6SM SCT150
      TEMPO 2811/2813 SCT022
     FM281600 16010KT P6SM SCT030 SCT120
     FM282200 19012G20KT P6SM FEW120
     FM290200 23013KT P6SM FEW120=

USA.gov is the U.S. government's official web portal to all federal, state and local government web resources and services.